sensor_id;sensor_type;location;lat;lon;timestamp;P1;durP1;ratioP1;P2;durP2;ratioP2
51082;SDS011;37131;42.694;23.350;2022-11-04T00:00:07;6.68;;;2.17;;
51082;SDS011;37131;42.694;23.350;2022-11-04T00:02:33;6.82;;;2.88;;
51082;SDS011;37131;42.694;23.350;2022-11-04T00:04:58;6.32;;;2.67;;
51082;SDS011;37131;42.694;23.350;2022-11-04T00:07:24;6.18;;;2.50;;
51082;SDS011;37131;42.694;23.350;2022-11-04T00:10:08;9.33;;;2.43;;
51082;SDS011;37131;42.694;23.350;2022-11-04T00:12:33;6.20;;;1.80;;
51082;SDS011;37131;42.694;23.350;2022-11-04T00:14:59;5.35;;;2.38;;
51082;SDS011;37131;42.694;23.350;2022-11-04T00:17:44;7.88;;;2.45;;
51082;SDS011;37131;42.694;23.350;2022-11-04T00:20:09;5.70;;;2.03;;
51082;SDS011;37131;42.694;23.350;2022-11-04T00:22:53;6.95;;;2.90;;
51082;SDS011;37131;42.694;23.350;2022-11-04T00:25:37;8.77;;;2.55;;
51082;SDS011;37131;42.694;23.350;2022-11-04T00:28:21;6.07;;;2.43;;
51082;SDS011;37131;42.694;23.350;2022-11-04T00:31:05;9.47;;;2.57;;
51082;SDS011;37131;42.694;23.350;2022-11-04T00:33:51;8.98;;;2.35;;
51082;SDS011;37131;42.694;23.350;2022-11-04T00:36:18;5.93;;;2.05;;
51082;SDS011;37131;42.694;23.350;2022-11-04T00:38:44;8.02;;;2.28;;
51082;SDS011;37131;42.694;23.350;2022-11-04T00:41:09;10.20;;;2.42;;
51082;SDS011;37131;42.694;23.350;2022-11-04T00:44:00;6.38;;;2.58;;
51082;SDS011;37131;42.694;23.350;2022-11-04T00:46:28;12.23;;;2.60;;
51082;SDS011;37131;42.694;23.350;2022-11-04T00:48:54;9.68;;;2.75;;
51082;SDS011;37131;42.694;23.350;2022-11-04T00:51:20;7.18;;;2.53;;
51082;SDS011;37131;42.694;23.350;2022-11-04T00:53:46;5.13;;;2.38;;
51082;SDS011;37131;42.694;23.350;2022-11-04T00:56:12;5.30;;;2.35;;
51082;SDS011;37131;42.694;23.350;2022-11-04T00:58:37;6.60;;;2.45;;
51082;SDS011;37131;42.694;23.350;2022-11-04T01:01:07;6.15;;;2.53;;
51082;SDS011;37131;42.694;23.350;2022-11-04T01:03:36;5.90;;;2.50;;
51082;SDS011;37131;42.694;23.350;2022-11-04T01:06:01;8.50;;;2.63;;
51082;SDS011;37131;42.694;23.350;2022-11-04T01:08:28;9.30;;;2.47;;
51082;SDS011;37131;42.694;23.350;2022-11-04T01:10:53;5.97;;;2.60;;
51082;SDS011;37131;42.694;23.350;2022-11-04T01:13:18;4.45;;;1.90;;
51082;SDS011;37131;42.694;23.350;2022-11-04T01:15:44;8.93;;;2.13;;
51082;SDS011;37131;42.694;23.350;2022-11-04T01:18:09;9.50;;;2.60;;
51082;SDS011;37131;42.694;23.350;2022-11-04T01:20:35;7.60;;;3.03;;
51082;SDS011;37131;42.694;23.350;2022-11-04T01:23:00;5.40;;;2.53;;
51082;SDS011;37131;42.694;23.350;2022-11-04T01:25:25;9.35;;;2.95;;
51082;SDS011;37131;42.694;23.350;2022-11-04T01:27:51;8.63;;;2.90;;
51082;SDS011;37131;42.694;23.350;2022-11-04T01:30:16;8.02;;;2.72;;
51082;SDS011;37131;42.694;23.350;2022-11-04T01:32:42;10.15;;;2.83;;
51082;SDS011;37131;42.694;23.350;2022-11-04T01:35:07;7.55;;;3.28;;
51082;SDS011;37131;42.694;23.350;2022-11-04T01:37:33;7.57;;;2.78;;
51082;SDS011;37131;42.694;23.350;2022-11-04T01:39:58;11.20;;;2.78;;
51082;SDS011;37131;42.694;23.350;2022-11-04T01:42:24;4.85;;;2.30;;
51082;SDS011;37131;42.694;23.350;2022-11-04T01:44:53;8.40;;;2.25;;
51082;SDS011;37131;42.694;23.350;2022-11-04T01:50:14;11.52;;;2.92;;
51082;SDS011;37131;42.694;23.350;2022-11-04T01:52:55;6.07;;;2.53;;
51082;SDS011;37131;42.694;23.350;2022-11-04T01:55:30;8.13;;;2.70;;
51082;SDS011;37131;42.694;23.350;2022-11-04T01:58:00;12.52;;;3.30;;
51082;SDS011;37131;42.694;23.350;2022-11-04T02:00:38;12.13;;;3.17;;
51082;SDS011;37131;42.694;23.350;2022-11-04T02:06:02;9.13;;;4.05;;
51082;SDS011;37131;42.694;23.350;2022-11-04T02:08:28;12.73;;;3.78;;
51082;SDS011;37131;42.694;23.350;2022-11-04T02:10:57;8.63;;;3.25;;
51082;SDS011;37131;42.694;23.350;2022-11-04T02:13:25;12.00;;;3.67;;
51082;SDS011;37131;42.694;23.350;2022-11-04T02:35:10;11.52;;;3.22;;
51082;SDS011;37131;42.694;23.350;2022-11-04T02:41:09;14.82;;;3.50;;
51082;SDS011;37131;42.694;23.350;2022-11-04T02:46:19;7.97;;;3.42;;
51082;SDS011;37131;42.694;23.350;2022-11-04T02:51:20;14.70;;;3.53;;
51082;SDS011;37131;42.694;23.350;2022-11-04T02:54:05;11.98;;;3.97;;
51082;SDS011;37131;42.694;23.350;2022-11-04T02:56:33;9.50;;;3.58;;
51082;SDS011;37131;42.694;23.350;2022-11-04T02:59:04;8.07;;;3.30;;
51082;SDS011;37131;42.694;23.350;2022-11-04T03:01:36;13.00;;;3.92;;
51082;SDS011;37131;42.694;23.350;2022-11-04T03:04:07;10.82;;;2.78;;
51082;SDS011;37131;42.694;23.350;2022-11-04T03:06:37;7.55;;;3.30;;
51082;SDS011;37131;42.694;23.350;2022-11-04T03:09:04;7.07;;;2.78;;
51082;SDS011;37131;42.694;23.350;2022-11-04T03:11:32;8.15;;;2.88;;
51082;SDS011;37131;42.694;23.350;2022-11-04T03:14:07;6.97;;;3.00;;
51082;SDS011;37131;42.694;23.350;2022-11-04T03:21:46;10.55;;;3.17;;
51082;SDS011;37131;42.694;23.350;2022-11-04T03:24:19;15.38;;;4.07;;
51082;SDS011;37131;42.694;23.350;2022-11-04T03:34:46;10.32;;;3.33;;
51082;SDS011;37131;42.694;23.350;2022-11-04T03:37:12;10.52;;;3.88;;
51082;SDS011;37131;42.694;23.350;2022-11-04T03:39:38;9.60;;;3.17;;
51082;SDS011;37131;42.694;23.350;2022-11-04T03:42:05;8.93;;;3.72;;
51082;SDS011;37131;42.694;23.350;2022-11-04T03:44:53;11.93;;;3.33;;
51082;SDS011;37131;42.694;23.350;2022-11-04T03:47:21;12.82;;;3.60;;
51082;SDS011;37131;42.694;23.350;2022-11-04T03:49:49;8.27;;;3.20;;
51082;SDS011;37131;42.694;23.350;2022-11-04T03:52:19;11.13;;;3.47;;
51082;SDS011;37131;42.694;23.350;2022-11-04T03:54:45;9.07;;;3.55;;
51082;SDS011;37131;42.694;23.350;2022-11-04T04:00:07;9.10;;;3.78;;
51082;SDS011;37131;42.694;23.350;2022-11-04T04:03:08;10.13;;;3.92;;
51082;SDS011;37131;42.694;23.350;2022-11-04T04:05:53;10.88;;;3.67;;
51082;SDS011;37131;42.694;23.350;2022-11-04T04:16:17;9.45;;;3.50;;
51082;SDS011;37131;42.694;23.350;2022-11-04T04:21:29;16.38;;;4.28;;
51082;SDS011;37131;42.694;23.350;2022-11-04T04:23:59;13.13;;;3.70;;
51082;SDS011;37131;42.694;23.350;2022-11-04T04:26:48;14.43;;;3.75;;
51082;SDS011;37131;42.694;23.350;2022-11-04T04:29:34;11.38;;;3.75;;
51082;SDS011;37131;42.694;23.350;2022-11-04T04:32:01;7.57;;;3.40;;
51082;SDS011;37131;42.694;23.350;2022-11-04T04:34:30;7.07;;;3.22;;
51082;SDS011;37131;42.694;23.350;2022-11-04T04:42:18;13.10;;;3.30;;
51082;SDS011;37131;42.694;23.350;2022-11-04T04:47:43;8.23;;;3.22;;
51082;SDS011;37131;42.694;23.350;2022-11-04T04:50:10;8.55;;;3.15;;
51082;SDS011;37131;42.694;23.350;2022-11-04T04:52:40;9.35;;;3.47;;
51082;SDS011;37131;42.694;23.350;2022-11-04T04:55:08;13.38;;;3.90;;
51082;SDS011;37131;42.694;23.350;2022-11-04T04:57:35;13.45;;;4.47;;
51082;SDS011;37131;42.694;23.350;2022-11-04T05:00:00;7.55;;;3.70;;
51082;SDS011;37131;42.694;23.350;2022-11-04T05:02:25;12.02;;;3.85;;
51082;SDS011;37131;42.694;23.350;2022-11-04T05:04:51;11.15;;;3.60;;
51082;SDS011;37131;42.694;23.350;2022-11-04T05:07:16;13.23;;;4.15;;
51082;SDS011;37131;42.694;23.350;2022-11-04T05:09:42;11.23;;;4.35;;
51082;SDS011;37131;42.694;23.350;2022-11-04T05:12:07;18.05;;;4.00;;
51082;SDS011;37131;42.694;23.350;2022-11-04T05:14:34;10.48;;;4.05;;
51082;SDS011;37131;42.694;23.350;2022-11-04T05:16:59;11.55;;;4.05;;
51082;SDS011;37131;42.694;23.350;2022-11-04T05:19:25;14.27;;;5.13;;
51082;SDS011;37131;42.694;23.350;2022-11-04T05:21:50;12.43;;;4.30;;
51082;SDS011;37131;42.694;23.350;2022-11-04T05:24:16;9.88;;;3.38;;
51082;SDS011;37131;42.694;23.350;2022-11-04T05:26:41;12.07;;;3.72;;
51082;SDS011;37131;42.694;23.350;2022-11-04T05:29:07;11.68;;;4.47;;
51082;SDS011;37131;42.694;23.350;2022-11-04T05:31:33;7.63;;;3.78;;
51082;SDS011;37131;42.694;23.350;2022-11-04T05:33:59;14.40;;;4.57;;
51082;SDS011;37131;42.694;23.350;2022-11-04T05:36:25;13.20;;;4.47;;
51082;SDS011;37131;42.694;23.350;2022-11-04T05:38:51;12.40;;;3.97;;
51082;SDS011;37131;42.694;23.350;2022-11-04T05:41:19;15.10;;;4.82;;
51082;SDS011;37131;42.694;23.350;2022-11-04T05:43:55;12.68;;;4.47;;
51082;SDS011;37131;42.694;23.350;2022-11-04T05:46:22;17.02;;;4.65;;
51082;SDS011;37131;42.694;23.350;2022-11-04T05:48:48;10.07;;;4.95;;
51082;SDS011;37131;42.694;23.350;2022-11-04T05:51:14;13.68;;;5.13;;
51082;SDS011;37131;42.694;23.350;2022-11-04T05:53:41;17.90;;;5.43;;
51082;SDS011;37131;42.694;23.350;2022-11-04T05:56:06;13.93;;;4.82;;
51082;SDS011;37131;42.694;23.350;2022-11-04T05:58:32;13.10;;;5.05;;
51082;SDS011;37131;42.694;23.350;2022-11-04T06:03:38;14.25;;;5.22;;
51082;SDS011;37131;42.694;23.350;2022-11-04T06:06:03;14.63;;;4.63;;
51082;SDS011;37131;42.694;23.350;2022-11-04T06:08:29;12.55;;;4.85;;
51082;SDS011;37131;42.694;23.350;2022-11-04T06:10:55;19.02;;;6.05;;
51082;SDS011;37131;42.694;23.350;2022-11-04T06:13:21;18.98;;;5.35;;
51082;SDS011;37131;42.694;23.350;2022-11-04T06:15:46;20.58;;;5.45;;
51082;SDS011;37131;42.694;23.350;2022-11-04T06:18:12;20.50;;;4.78;;
51082;SDS011;37131;42.694;23.350;2022-11-04T06:20:37;15.00;;;5.43;;
51082;SDS011;37131;42.694;23.350;2022-11-04T06:23:02;16.33;;;5.25;;
51082;SDS011;37131;42.694;23.350;2022-11-04T06:25:28;15.32;;;5.07;;
51082;SDS011;37131;42.694;23.350;2022-11-04T06:27:54;24.40;;;5.28;;
51082;SDS011;37131;42.694;23.350;2022-11-04T06:30:19;17.67;;;6.22;;
51082;SDS011;37131;42.694;23.350;2022-11-04T06:32:45;17.13;;;4.95;;
51082;SDS011;37131;42.694;23.350;2022-11-04T06:35:10;22.48;;;5.90;;
51082;SDS011;37131;42.694;23.350;2022-11-04T06:37:35;15.02;;;5.82;;
51082;SDS011;37131;42.694;23.350;2022-11-04T06:40:02;15.63;;;5.60;;
51082;SDS011;37131;42.694;23.350;2022-11-04T06:42:27;19.90;;;5.70;;
51082;SDS011;37131;42.694;23.350;2022-11-04T06:44:53;16.17;;;5.32;;
51082;SDS011;37131;42.694;23.350;2022-11-04T06:47:18;17.05;;;5.70;;
51082;SDS011;37131;42.694;23.350;2022-11-04T06:49:43;17.15;;;5.90;;
51082;SDS011;37131;42.694;23.350;2022-11-04T06:52:09;20.33;;;6.43;;
51082;SDS011;37131;42.694;23.350;2022-11-04T06:54:34;14.80;;;6.38;;
51082;SDS011;37131;42.694;23.350;2022-11-04T06:56:59;16.52;;;5.63;;
51082;SDS011;37131;42.694;23.350;2022-11-04T06:59:25;18.92;;;5.90;;
51082;SDS011;37131;42.694;23.350;2022-11-04T07:01:50;16.50;;;6.88;;
51082;SDS011;37131;42.694;23.350;2022-11-04T07:04:16;14.73;;;5.35;;
51082;SDS011;37131;42.694;23.350;2022-11-04T07:06:41;17.98;;;6.32;;
51082;SDS011;37131;42.694;23.350;2022-11-04T07:09:08;15.68;;;6.07;;
51082;SDS011;37131;42.694;23.350;2022-11-04T07:11:35;18.45;;;5.65;;
51082;SDS011;37131;42.694;23.350;2022-11-04T07:14:00;21.83;;;5.20;;
51082;SDS011;37131;42.694;23.350;2022-11-04T07:16:26;15.57;;;5.45;;
51082;SDS011;37131;42.694;23.350;2022-11-04T07:18:55;18.00;;;6.22;;
51082;SDS011;37131;42.694;23.350;2022-11-04T07:21:20;15.13;;;5.82;;
51082;SDS011;37131;42.694;23.350;2022-11-04T07:23:46;16.30;;;4.95;;
51082;SDS011;37131;42.694;23.350;2022-11-04T07:26:12;14.70;;;5.63;;
51082;SDS011;37131;42.694;23.350;2022-11-04T07:28:38;17.58;;;6.03;;
51082;SDS011;37131;42.694;23.350;2022-11-04T07:31:05;18.70;;;6.30;;
51082;SDS011;37131;42.694;23.350;2022-11-04T07:33:32;11.95;;;5.63;;
51082;SDS011;37131;42.694;23.350;2022-11-04T07:35:58;16.67;;;5.55;;
51082;SDS011;37131;42.694;23.350;2022-11-04T07:38:27;16.73;;;6.00;;
51082;SDS011;37131;42.694;23.350;2022-11-04T07:40:52;16.98;;;5.55;;
51082;SDS011;37131;42.694;23.350;2022-11-04T07:43:18;14.90;;;5.25;;
51082;SDS011;37131;42.694;23.350;2022-11-04T07:45:43;15.35;;;5.47;;
51082;SDS011;37131;42.694;23.350;2022-11-04T07:48:08;16.92;;;5.38;;
51082;SDS011;37131;42.694;23.350;2022-11-04T07:50:36;20.20;;;6.13;;
51082;SDS011;37131;42.694;23.350;2022-11-04T07:53:02;14.55;;;5.40;;
51082;SDS011;37131;42.694;23.350;2022-11-04T07:55:28;20.70;;;5.97;;
51082;SDS011;37131;42.694;23.350;2022-11-04T07:57:54;14.93;;;5.45;;
51082;SDS011;37131;42.694;23.350;2022-11-04T08:00:19;16.88;;;5.82;;
51082;SDS011;37131;42.694;23.350;2022-11-04T08:02:45;15.95;;;5.43;;
51082;SDS011;37131;42.694;23.350;2022-11-04T08:05:11;14.90;;;5.40;;
51082;SDS011;37131;42.694;23.350;2022-11-04T08:07:37;14.95;;;6.13;;
51082;SDS011;37131;42.694;23.350;2022-11-04T08:10:03;15.18;;;6.45;;
51082;SDS011;37131;42.694;23.350;2022-11-04T08:12:29;21.42;;;5.65;;
51082;SDS011;37131;42.694;23.350;2022-11-04T08:14:56;18.98;;;5.50;;
51082;SDS011;37131;42.694;23.350;2022-11-04T08:17:22;20.13;;;5.50;;
51082;SDS011;37131;42.694;23.350;2022-11-04T08:19:47;14.73;;;4.95;;
51082;SDS011;37131;42.694;23.350;2022-11-04T08:22:13;17.33;;;5.30;;
51082;SDS011;37131;42.694;23.350;2022-11-04T08:24:38;20.40;;;5.93;;
51082;SDS011;37131;42.694;23.350;2022-11-04T08:27:04;16.77;;;5.55;;
51082;SDS011;37131;42.694;23.350;2022-11-04T08:29:31;14.40;;;4.93;;
51082;SDS011;37131;42.694;23.350;2022-11-04T08:31:57;14.57;;;5.07;;
51082;SDS011;37131;42.694;23.350;2022-11-04T08:34:23;19.25;;;5.45;;
51082;SDS011;37131;42.694;23.350;2022-11-04T08:36:48;14.27;;;5.00;;
51082;SDS011;37131;42.694;23.350;2022-11-04T08:39:14;15.20;;;4.80;;
51082;SDS011;37131;42.694;23.350;2022-11-04T08:41:40;21.15;;;5.57;;
51082;SDS011;37131;42.694;23.350;2022-11-04T08:44:07;14.07;;;5.40;;
51082;SDS011;37131;42.694;23.350;2022-11-04T08:46:34;13.60;;;5.35;;
51082;SDS011;37131;42.694;23.350;2022-11-04T08:49:01;15.13;;;5.43;;
51082;SDS011;37131;42.694;23.350;2022-11-04T08:51:27;15.52;;;6.03;;
51082;SDS011;37131;42.694;23.350;2022-11-04T08:53:54;12.20;;;4.70;;
51082;SDS011;37131;42.694;23.350;2022-11-04T08:56:26;12.38;;;5.20;;
51082;SDS011;37131;42.694;23.350;2022-11-04T09:01:20;15.50;;;4.95;;
51082;SDS011;37131;42.694;23.350;2022-11-04T09:03:46;15.20;;;4.93;;
51082;SDS011;37131;42.694;23.350;2022-11-04T09:06:14;18.63;;;6.07;;
51082;SDS011;37131;42.694;23.350;2022-11-04T09:08:45;17.27;;;6.50;;
51082;SDS011;37131;42.694;23.350;2022-11-04T09:11:12;13.13;;;4.10;;
51082;SDS011;37131;42.694;23.350;2022-11-04T09:13:38;16.23;;;5.80;;
51082;SDS011;37131;42.694;23.350;2022-11-04T09:16:04;11.52;;;5.05;;
51082;SDS011;37131;42.694;23.350;2022-11-04T09:18:30;13.75;;;5.18;;
51082;SDS011;37131;42.694;23.350;2022-11-04T09:20:59;14.40;;;5.55;;
51082;SDS011;37131;42.694;23.350;2022-11-04T09:23:26;10.25;;;4.57;;
51082;SDS011;37131;42.694;23.350;2022-11-04T09:25:51;12.80;;;5.07;;
51082;SDS011;37131;42.694;23.350;2022-11-04T09:28:17;15.23;;;5.20;;
51082;SDS011;37131;42.694;23.350;2022-11-04T09:30:42;15.38;;;5.28;;
51082;SDS011;37131;42.694;23.350;2022-11-04T09:33:08;21.10;;;5.68;;
51082;SDS011;37131;42.694;23.350;2022-11-04T09:35:33;16.15;;;4.90;;
51082;SDS011;37131;42.694;23.350;2022-11-04T09:37:59;13.80;;;5.25;;
51082;SDS011;37131;42.694;23.350;2022-11-04T09:40:27;11.90;;;4.60;;
51082;SDS011;37131;42.694;23.350;2022-11-04T09:45:23;14.48;;;4.32;;
51082;SDS011;37131;42.694;23.350;2022-11-04T09:47:52;15.30;;;4.90;;
51082;SDS011;37131;42.694;23.350;2022-11-04T09:50:23;16.25;;;5.40;;
51082;SDS011;37131;42.694;23.350;2022-11-04T09:52:53;11.45;;;4.13;;
51082;SDS011;37131;42.694;23.350;2022-11-04T09:55:25;16.52;;;5.22;;
51082;SDS011;37131;42.694;23.350;2022-11-04T09:57:57;22.33;;;5.38;;
51082;SDS011;37131;42.694;23.350;2022-11-04T10:00:23;12.90;;;5.10;;
51082;SDS011;37131;42.694;23.350;2022-11-04T10:03:02;13.85;;;4.55;;
51082;SDS011;37131;42.694;23.350;2022-11-04T10:06:06;15.82;;;4.40;;
51082;SDS011;37131;42.694;23.350;2022-11-04T10:08:47;10.93;;;4.88;;
51082;SDS011;37131;42.694;23.350;2022-11-04T10:25:37;10.50;;;3.85;;
51082;SDS011;37131;42.694;23.350;2022-11-04T10:28:17;10.00;;;2.92;;
51082;SDS011;37131;42.694;23.350;2022-11-04T10:30:46;8.65;;;3.38;;
51082;SDS011;37131;42.694;23.350;2022-11-04T10:33:32;10.10;;;3.40;;
51082;SDS011;37131;42.694;23.350;2022-11-04T10:36:06;9.25;;;3.13;;
51082;SDS011;37131;42.694;23.350;2022-11-04T10:38:43;10.75;;;3.75;;
51082;SDS011;37131;42.694;23.350;2022-11-04T10:46:39;9.18;;;3.42;;
51082;SDS011;37131;42.694;23.350;2022-11-04T10:51:50;8.18;;;3.05;;
51082;SDS011;37131;42.694;23.350;2022-11-04T10:54:17;9.45;;;3.33;;
51082;SDS011;37131;42.694;23.350;2022-11-04T10:56:46;9.63;;;3.35;;
51082;SDS011;37131;42.694;23.350;2022-11-04T11:01:52;10.70;;;3.45;;
51082;SDS011;37131;42.694;23.350;2022-11-04T11:04:27;7.90;;;3.53;;
51082;SDS011;37131;42.694;23.350;2022-11-04T11:06:54;7.90;;;3.55;;
51082;SDS011;37131;42.694;23.350;2022-11-04T11:09:23;12.70;;;4.10;;
51082;SDS011;37131;42.694;23.350;2022-11-04T11:11:54;9.95;;;3.78;;
51082;SDS011;37131;42.694;23.350;2022-11-04T11:16:51;8.35;;;3.45;;
51082;SDS011;37131;42.694;23.350;2022-11-04T11:19:18;12.65;;;3.53;;
51082;SDS011;37131;42.694;23.350;2022-11-04T11:21:46;11.90;;;4.15;;
51082;SDS011;37131;42.694;23.350;2022-11-04T11:24:25;11.93;;;3.30;;
51082;SDS011;37131;42.694;23.350;2022-11-04T11:26:55;6.82;;;3.50;;
51082;SDS011;37131;42.694;23.350;2022-11-04T11:29:27;9.73;;;3.38;;
51082;SDS011;37131;42.694;23.350;2022-11-04T11:31:55;8.43;;;2.97;;
51082;SDS011;37131;42.694;23.350;2022-11-04T11:34:24;15.15;;;3.63;;
51082;SDS011;37131;42.694;23.350;2022-11-04T11:36:54;12.15;;;2.88;;
51082;SDS011;37131;42.694;23.350;2022-11-04T11:39:25;7.25;;;2.78;;
51082;SDS011;37131;42.694;23.350;2022-11-04T11:42:06;9.02;;;3.40;;
51082;SDS011;37131;42.694;23.350;2022-11-04T11:44:36;6.90;;;2.85;;
51082;SDS011;37131;42.694;23.350;2022-11-04T11:47:21;11.57;;;3.50;;
51082;SDS011;37131;42.694;23.350;2022-11-04T11:49:49;15.00;;;3.50;;
51082;SDS011;37131;42.694;23.350;2022-11-04T11:52:38;10.85;;;3.58;;
51082;SDS011;37131;42.694;23.350;2022-11-04T11:55:06;11.75;;;3.58;;
51082;SDS011;37131;42.694;23.350;2022-11-04T12:00:04;9.50;;;2.88;;
51082;SDS011;37131;42.694;23.350;2022-11-04T12:05:39;9.45;;;3.35;;
51082;SDS011;37131;42.694;23.350;2022-11-04T12:08:29;7.97;;;3.00;;
51082;SDS011;37131;42.694;23.350;2022-11-04T12:11:02;13.38;;;3.33;;
51082;SDS011;37131;42.694;23.350;2022-11-04T12:13:56;7.18;;;2.78;;
51082;SDS011;37131;42.694;23.350;2022-11-04T12:27:35;10.43;;;2.85;;
51082;SDS011;37131;42.694;23.350;2022-11-04T12:30:05;10.45;;;3.30;;
51082;SDS011;37131;42.694;23.350;2022-11-04T12:32:39;10.85;;;2.70;;
51082;SDS011;37131;42.694;23.350;2022-11-04T12:35:13;10.40;;;2.88;;
51082;SDS011;37131;42.694;23.350;2022-11-04T12:51:52;11.25;;;2.83;;
51082;SDS011;37131;42.694;23.350;2022-11-04T12:59:46;11.13;;;3.75;;
51082;SDS011;37131;42.694;23.350;2022-11-04T13:02:26;9.93;;;3.10;;
51082;SDS011;37131;42.694;23.350;2022-11-04T13:05:29;8.68;;;3.42;;
51082;SDS011;37131;42.694;23.350;2022-11-04T13:07:55;9.07;;;3.90;;
51082;SDS011;37131;42.694;23.350;2022-11-04T13:10:26;10.88;;;3.80;;
51082;SDS011;37131;42.694;23.350;2022-11-04T13:13:03;11.75;;;3.17;;
51082;SDS011;37131;42.694;23.350;2022-11-04T13:15:32;9.65;;;3.03;;
51082;SDS011;37131;42.694;23.350;2022-11-04T13:18:08;9.40;;;3.22;;
51082;SDS011;37131;42.694;23.350;2022-11-04T13:25:46;8.20;;;3.15;;
51082;SDS011;37131;42.694;23.350;2022-11-04T13:28:13;10.63;;;3.25;;
51082;SDS011;37131;42.694;23.350;2022-11-04T13:38:50;9.68;;;3.20;;
51082;SDS011;37131;42.694;23.350;2022-11-04T13:41:54;9.43;;;3.22;;
51082;SDS011;37131;42.694;23.350;2022-11-04T13:44:26;8.40;;;3.35;;
51082;SDS011;37131;42.694;23.350;2022-11-04T13:46:57;10.63;;;3.35;;
51082;SDS011;37131;42.694;23.350;2022-11-04T13:49:33;8.25;;;3.17;;
51082;SDS011;37131;42.694;23.350;2022-11-04T13:52:07;12.00;;;4.25;;
51082;SDS011;37131;42.694;23.350;2022-11-04T13:54:38;8.55;;;3.20;;
51082;SDS011;37131;42.694;23.350;2022-11-04T13:57:08;8.20;;;3.50;;
51082;SDS011;37131;42.694;23.350;2022-11-04T13:59:37;9.05;;;3.17;;
51082;SDS011;37131;42.694;23.350;2022-11-04T14:04:44;9.80;;;2.85;;
51082;SDS011;37131;42.694;23.350;2022-11-04T14:07:10;8.68;;;3.13;;
51082;SDS011;37131;42.694;23.350;2022-11-04T14:22:51;11.82;;;3.38;;
51082;SDS011;37131;42.694;23.350;2022-11-04T14:25:38;11.05;;;3.17;;
51082;SDS011;37131;42.694;23.350;2022-11-04T14:38:56;11.25;;;3.55;;
51082;SDS011;37131;42.694;23.350;2022-11-04T14:44:07;8.32;;;3.42;;
51082;SDS011;37131;42.694;23.350;2022-11-04T14:46:39;8.15;;;3.42;;
51082;SDS011;37131;42.694;23.350;2022-11-04T14:49:16;12.13;;;3.30;;
51082;SDS011;37131;42.694;23.350;2022-11-04T14:52:15;11.43;;;4.10;;
51082;SDS011;37131;42.694;23.350;2022-11-04T14:54:55;10.02;;;3.50;;
51082;SDS011;37131;42.694;23.350;2022-11-04T14:57:28;12.82;;;4.05;;
51082;SDS011;37131;42.694;23.350;2022-11-04T14:59:54;7.97;;;3.55;;
51082;SDS011;37131;42.694;23.350;2022-11-04T15:02:20;10.23;;;3.85;;
51082;SDS011;37131;42.694;23.350;2022-11-04T15:04:58;9.70;;;3.33;;
51082;SDS011;37131;42.694;23.350;2022-11-04T15:07:30;7.78;;;3.25;;
51082;SDS011;37131;42.694;23.350;2022-11-04T15:09:56;16.27;;;3.78;;
51082;SDS011;37131;42.694;23.350;2022-11-04T15:12:22;10.98;;;3.90;;
51082;SDS011;37131;42.694;23.350;2022-11-04T15:18:07;13.68;;;3.83;;
51082;SDS011;37131;42.694;23.350;2022-11-04T15:20:38;14.77;;;4.18;;
51082;SDS011;37131;42.694;23.350;2022-11-04T15:23:11;12.90;;;3.58;;
51082;SDS011;37131;42.694;23.350;2022-11-04T15:25:46;9.75;;;3.47;;
51082;SDS011;37131;42.694;23.350;2022-11-04T15:28:20;10.63;;;4.07;;
51082;SDS011;37131;42.694;23.350;2022-11-04T15:31:12;14.38;;;4.10;;
51082;SDS011;37131;42.694;23.350;2022-11-04T15:33:40;12.20;;;4.10;;
51082;SDS011;37131;42.694;23.350;2022-11-04T15:36:09;14.82;;;4.22;;
51082;SDS011;37131;42.694;23.350;2022-11-04T15:38:42;11.13;;;3.80;;
51082;SDS011;37131;42.694;23.350;2022-11-04T15:41:10;12.82;;;4.78;;
51082;SDS011;37131;42.694;23.350;2022-11-04T15:43:56;13.57;;;3.92;;
51082;SDS011;37131;42.694;23.350;2022-11-04T15:46:21;13.35;;;3.80;;
51082;SDS011;37131;42.694;23.350;2022-11-04T15:49:03;11.43;;;4.53;;
51082;SDS011;37131;42.694;23.350;2022-11-04T15:51:37;11.57;;;4.32;;
51082;SDS011;37131;42.694;23.350;2022-11-04T15:54:19;19.02;;;5.60;;
51082;SDS011;37131;42.694;23.350;2022-11-04T15:56:49;13.82;;;4.70;;
51082;SDS011;37131;42.694;23.350;2022-11-04T15:59:20;17.73;;;4.88;;
51082;SDS011;37131;42.694;23.350;2022-11-04T16:01:50;12.95;;;4.40;;
51082;SDS011;37131;42.694;23.350;2022-11-04T16:04:17;12.40;;;4.72;;
51082;SDS011;37131;42.694;23.350;2022-11-04T16:07:00;11.02;;;4.65;;
51082;SDS011;37131;42.694;23.350;2022-11-04T16:09:29;10.98;;;4.00;;
51082;SDS011;37131;42.694;23.350;2022-11-04T16:14:29;11.38;;;4.05;;
51082;SDS011;37131;42.694;23.350;2022-11-04T16:16:55;17.27;;;5.15;;
51082;SDS011;37131;42.694;23.350;2022-11-04T16:19:24;12.20;;;4.10;;
51082;SDS011;37131;42.694;23.350;2022-11-04T16:22:02;15.88;;;4.47;;
51082;SDS011;37131;42.694;23.350;2022-11-04T16:24:33;17.45;;;4.70;;
51082;SDS011;37131;42.694;23.350;2022-11-04T16:27:02;13.48;;;4.70;;
51082;SDS011;37131;42.694;23.350;2022-11-04T16:29:30;14.13;;;4.00;;
51082;SDS011;37131;42.694;23.350;2022-11-04T16:34:50;11.48;;;4.28;;
51082;SDS011;37131;42.694;23.350;2022-11-04T16:37:16;12.18;;;5.15;;
51082;SDS011;37131;42.694;23.350;2022-11-04T16:39:43;14.75;;;4.30;;
51082;SDS011;37131;42.694;23.350;2022-11-04T16:42:10;13.55;;;4.75;;
51082;SDS011;37131;42.694;23.350;2022-11-04T16:44:37;13.55;;;4.53;;
51082;SDS011;37131;42.694;23.350;2022-11-04T16:47:03;14.90;;;4.55;;
51082;SDS011;37131;42.694;23.350;2022-11-04T16:49:29;10.75;;;4.22;;
51082;SDS011;37131;42.694;23.350;2022-11-04T16:51:55;12.57;;;4.75;;
51082;SDS011;37131;42.694;23.350;2022-11-04T16:54:25;13.32;;;5.38;;
51082;SDS011;37131;42.694;23.350;2022-11-04T16:56:52;13.13;;;5.18;;
51082;SDS011;37131;42.694;23.350;2022-11-04T16:59:18;18.30;;;5.28;;
51082;SDS011;37131;42.694;23.350;2022-11-04T17:01:44;13.73;;;5.25;;
51082;SDS011;37131;42.694;23.350;2022-11-04T17:04:09;13.05;;;5.60;;
51082;SDS011;37131;42.694;23.350;2022-11-04T17:06:35;11.90;;;4.82;;
51082;SDS011;37131;42.694;23.350;2022-11-04T17:09:01;11.68;;;4.28;;
51082;SDS011;37131;42.694;23.350;2022-11-04T17:11:27;14.15;;;3.85;;
51082;SDS011;37131;42.694;23.350;2022-11-04T17:13:54;8.15;;;3.45;;
51082;SDS011;37131;42.694;23.350;2022-11-04T17:16:19;19.60;;;4.32;;
51082;SDS011;37131;42.694;23.350;2022-11-04T17:18:45;15.95;;;4.15;;
51082;SDS011;37131;42.694;23.350;2022-11-04T17:21:11;17.48;;;4.72;;
51082;SDS011;37131;42.694;23.350;2022-11-04T17:23:41;13.50;;;3.38;;
51082;SDS011;37131;42.694;23.350;2022-11-04T17:26:08;12.88;;;4.13;;
51082;SDS011;37131;42.694;23.350;2022-11-04T17:28:35;8.85;;;3.75;;
51082;SDS011;37131;42.694;23.350;2022-11-04T17:31:01;14.75;;;4.05;;
51082;SDS011;37131;42.694;23.350;2022-11-04T17:33:27;15.55;;;4.50;;
51082;SDS011;37131;42.694;23.350;2022-11-04T17:35:52;14.00;;;4.38;;
51082;SDS011;37131;42.694;23.350;2022-11-04T17:38:18;12.15;;;4.30;;
51082;SDS011;37131;42.694;23.350;2022-11-04T17:40:43;8.57;;;3.45;;
51082;SDS011;37131;42.694;23.350;2022-11-04T17:43:28;10.18;;;3.70;;
51082;SDS011;37131;42.694;23.350;2022-11-04T17:46:12;14.25;;;4.13;;
51082;SDS011;37131;42.694;23.350;2022-11-04T17:48:56;9.95;;;3.80;;
51082;SDS011;37131;42.694;23.350;2022-11-04T17:51:22;9.95;;;3.55;;